Navilleton, Indiana
Current Conditions -  °F | °C
As of 2:56 AM on Monday 24 Nov 2014 (Local Time) from KSDF Reporting Station
Overcast Overcast  
Wind Chill: 62°   Ceiling: 2800
Heat Index: 62°   Visibility: 10mi
Dew Point: 56°   Wind: 15mph
Humidity: 80%   Direction: 200°SSW
Pressure: 29.36"   Gusts: 24mph
Location:  38.3602°N, 85.8979°W
Report Text: KSDF 240756Z 20013G21KT 10SM SCT020 BKN028 OVC065 17/13 A2936 RMK AO2 RAB16E30 SLP939 P0000 T01670133 $
Loading
Personal Weather Stations






























Interactive Weather Map New forecast layout! Learn more

10-Day Weather Forecast

Advertisements
Track Severe Weather on mobile